createdAt,value
2019-02-24T00:00:09.519Z,6.45
2019-02-24T00:02:40.249Z,6.49
2019-02-24T00:05:09.700Z,6.46
2019-02-24T00:07:38.820Z,6.46
2019-02-24T00:10:08.190Z,6.41
2019-02-24T00:12:37.307Z,6.33
2019-02-24T00:15:08.266Z,6.29
2019-02-24T00:17:37.385Z,6.26
2019-02-24T00:20:07.472Z,6.20
2019-02-24T00:22:36.592Z,6.14
2019-02-24T00:25:05.767Z,6.23
2019-02-24T00:27:34.899Z,6.13
2019-02-24T00:30:06.422Z,6.11
2019-02-24T00:32:35.543Z,6.11
2019-02-24T00:35:05.592Z,6.09
2019-02-24T00:37:34.713Z,6.10
2019-02-24T00:40:05.270Z,6.06
2019-02-24T00:42:34.656Z,6.03
2019-02-24T00:45:04.405Z,5.96
2019-02-24T00:47:33.592Z,5.91
2019-02-24T00:50:02.950Z,5.93
2019-02-24T00:52:33.035Z,5.94
2019-02-24T00:55:02.148Z,5.95
2019-02-24T00:57:31.264Z,5.96
2019-02-24T01:00:00.381Z,5.98
2019-02-24T01:02:29.507Z,5.97
2019-02-24T01:04:58.627Z,6.01
2019-02-24T01:07:27.751Z,5.99
2019-02-24T01:09:56.902Z,5.97
2019-02-24T01:12:26.025Z,6.01
2019-02-24T01:14:55.145Z,6.01
2019-02-24T01:17:25.240Z,6.01
2019-02-24T01:19:54.362Z,5.96
2019-02-24T01:22:23.489Z,5.91
2019-02-24T01:24:52.602Z,5.88
2019-02-24T01:27:21.724Z,5.86
2019-02-24T01:29:50.845Z,5.82
2019-02-24T01:32:19.972Z,5.76
2019-02-24T01:34:49.354Z,5.84
2019-02-24T01:37:18.770Z,5.80
2019-02-24T01:39:47.886Z,5.77
2019-02-24T01:42:17.023Z,5.78
2019-02-24T01:44:46.455Z,5.82
2019-02-24T01:47:15.572Z,5.83
2019-02-24T01:49:44.686Z,5.76
2019-02-24T01:52:14.054Z,5.71
2019-02-24T01:54:44.142Z,5.71
2019-02-24T01:57:13.273Z,5.71
2019-02-24T01:59:42.389Z,5.69
2019-02-24T02:02:11.504Z,5.68
2019-02-24T02:04:40.619Z,5.71
2019-02-24T02:07:09.738Z,5.66
2019-02-24T02:09:38.858Z,5.62
2019-02-24T02:12:11.181Z,5.65
2019-02-24T02:14:40.348Z,5.66
2019-02-24T02:17:09.420Z,5.70
2019-02-24T02:19:39.509Z,5.67
2019-02-24T02:22:08.620Z,5.66
2019-02-24T02:24:38.051Z,5.66
2019-02-24T02:27:07.441Z,5.64
2019-02-24T02:29:37.062Z,5.68
2019-02-24T02:32:06.181Z,5.68
2019-02-24T02:34:35.297Z,5.61
2019-02-24T02:37:04.416Z,5.64
2019-02-24T02:39:33.536Z,5.61
2019-02-24T02:42:03.043Z,5.63
2019-02-24T02:44:32.174Z,5.62
2019-02-24T02:47:02.269Z,5.62
2019-02-24T02:49:31.387Z,5.63
2019-02-24T02:52:00.507Z,5.59
2019-02-24T02:54:29.686Z,5.56
2019-02-24T02:56:58.825Z,5.54
2019-02-24T02:59:27.948Z,5.56
2019-02-24T03:01:58.112Z,5.55
2019-02-24T03:04:27.235Z,5.58
2019-02-24T03:07:13.938Z,5.53
2019-02-24T03:09:43.064Z,5.50
2019-02-24T03:12:12.484Z,5.55
2019-02-24T03:14:41.610Z,5.51
2019-02-24T03:17:10.732Z,5.49
2019-02-24T03:19:39.860Z,5.52
2019-02-24T03:22:08.985Z,5.52
2019-02-24T03:24:38.199Z,5.55
2019-02-24T03:27:07.314Z,5.47
2019-02-24T03:29:36.438Z,5.43
2019-02-24T03:32:05.599Z,5.43
2019-02-24T03:34:34.703Z,5.40
2019-02-24T03:37:03.844Z,5.44
2019-02-24T03:39:33.307Z,5.39
2019-02-24T03:42:02.431Z,5.39
2019-02-24T03:44:31.556Z,5.41
2019-02-24T03:47:00.680Z,5.40
2019-02-24T03:49:29.795Z,5.39
2019-02-24T03:51:59.249Z,5.34
2019-02-24T03:54:28.479Z,5.39
2019-02-24T03:56:57.617Z,5.38
2019-02-24T03:59:26.769Z,5.34
2019-02-24T04:01:55.946Z,5.38
2019-02-24T04:04:25.067Z,5.32
2019-02-24T04:06:54.412Z,5.32
2019-02-24T04:09:24.607Z,5.29
2019-02-24T04:11:53.724Z,5.33
2019-02-24T04:14:23.167Z,5.33
2019-02-24T04:16:52.288Z,5.31
2019-02-24T04:19:21.402Z,5.28
2019-02-24T04:21:50.529Z,5.26
2019-02-24T04:24:19.657Z,5.29
2019-02-24T04:26:48.774Z,5.22
2019-02-24T04:29:24.535Z,5.28
2019-02-24T04:31:48.742Z,5.25
2019-02-24T04:34:17.862Z,5.19
2019-02-24T04:36:46.984Z,5.14
2019-02-24T04:39:16.112Z,5.16
2019-02-24T04:41:45.237Z,5.14
2019-02-24T04:44:15.418Z,5.16
2019-02-24T04:46:44.533Z,5.14
2019-02-24T04:49:13.651Z,5.11
2019-02-24T04:51:43.003Z,5.16
2019-02-24T04:54:12.118Z,5.10
2019-02-24T04:56:41.247Z,5.09
2019-02-24T04:59:10.363Z,5.10
2019-02-24T05:01:39.484Z,5.09
2019-02-24T05:04:08.604Z,5.08
2019-02-24T05:06:37.729Z,5.08
2019-02-24T05:09:06.848Z,5.08
2019-02-24T05:11:35.979Z,5.07
2019-02-24T05:14:05.095Z,5.07
2019-02-24T05:16:34.222Z,5.09
2019-02-24T05:19:03.671Z,5.05
2019-02-24T05:21:32.799Z,5.03
2019-02-24T05:24:01.911Z,5.01
2019-02-24T05:26:31.033Z,4.96
2019-02-24T05:29:00.180Z,4.87
2019-02-24T05:31:29.569Z,4.85
2019-02-24T05:33:59.995Z,4.79
2019-02-24T05:36:31.311Z,4.72
2019-02-24T05:39:00.902Z,4.68
2019-02-24T05:41:31.648Z,4.69
2019-02-24T05:44:00.774Z,4.68
2019-02-24T05:46:29.911Z,4.67
2019-02-24T05:48:59.030Z,4.67
2019-02-24T05:51:28.156Z,4.63
2019-02-24T05:53:57.575Z,4.63
2019-02-24T05:56:26.700Z,4.61
2019-02-24T05:58:55.820Z,4.65
2019-02-24T06:01:24.958Z,4.65
2019-02-24T06:03:54.081Z,4.71
2019-02-24T06:06:23.280Z,4.69
2019-02-24T06:08:52.411Z,4.73
2019-02-24T06:11:21.541Z,4.76
2019-02-24T06:13:52.164Z,4.74
2019-02-24T06:16:21.452Z,4.68
2019-02-24T06:18:50.900Z,4.70
2019-02-24T06:21:20.110Z,4.67
2019-02-24T06:23:49.252Z,4.68
2019-02-24T06:26:18.373Z,4.72
2019-02-24T06:28:47.479Z,4.67
2019-02-24T06:31:17.050Z,4.66
2019-02-24T06:33:46.614Z,4.70
2019-02-24T06:36:15.938Z,4.66
2019-02-24T06:38:45.266Z,4.65
2019-02-24T06:41:14.593Z,4.64
2019-02-24T06:43:43.924Z,4.58
2019-02-24T06:46:13.485Z,4.57
2019-02-24T06:48:43.128Z,4.51
2019-02-24T06:51:12.621Z,4.45
2019-02-24T06:53:41.955Z,4.39
2019-02-24T06:56:11.283Z,4.42
2019-02-24T06:58:40.947Z,4.39
2019-02-24T07:01:10.279Z,4.38
2019-02-24T07:03:39.752Z,4.39
2019-02-24T07:06:09.082Z,4.43
2019-02-24T07:08:38.423Z,4.42
2019-02-24T07:11:07.795Z,4.45
2019-02-24T07:13:37.431Z,4.50
2019-02-24T07:16:07.090Z,4.55
2019-02-24T07:18:36.710Z,4.58
2019-02-24T07:21:06.046Z,4.70
2019-02-24T07:23:35.395Z,4.72
2019-02-24T07:26:04.738Z,4.79
2019-02-24T07:28:34.082Z,4.83
2019-02-24T07:31:03.414Z,4.89
2019-02-24T07:33:32.774Z,4.90
2019-02-24T07:36:02.101Z,4.93
2019-02-24T07:38:31.523Z,4.99
2019-02-24T07:41:00.851Z,5.06
2019-02-24T07:43:30.360Z,5.11
2019-02-24T07:46:00.026Z,5.15
2019-02-24T07:48:29.666Z,5.20
2019-02-24T07:50:59.968Z,5.26
2019-02-24T07:53:29.543Z,5.32
2019-02-24T07:55:58.889Z,5.39
2019-02-24T07:58:28.302Z,5.45
2019-02-24T08:00:57.663Z,5.47
2019-02-24T08:03:27.223Z,5.52
2019-02-24T08:05:56.554Z,5.57
2019-02-24T08:08:25.885Z,5.64
2019-02-24T08:10:55.225Z,5.71
2019-02-24T08:13:24.614Z,5.75
2019-02-24T08:15:54.202Z,5.79
2019-02-24T08:18:23.808Z,5.83
2019-02-24T08:20:53.409Z,5.88
2019-02-24T08:23:22.941Z,5.97
2019-02-24T08:25:52.343Z,6.03
2019-02-24T08:28:21.905Z,6.02
2019-02-24T08:30:51.237Z,6.06
2019-02-24T08:33:20.799Z,6.10
2019-02-24T08:35:50.363Z,6.15
2019-02-24T08:38:19.695Z,6.25
2019-02-24T08:40:49.026Z,6.29
2019-02-24T08:43:18.352Z,6.32
2019-02-24T08:45:47.691Z,6.37
2019-02-24T08:48:19.101Z,6.41
2019-02-24T08:50:48.342Z,6.47
2019-02-24T08:53:17.686Z,6.52
2019-02-24T08:55:47.027Z,6.56
2019-02-24T08:58:16.358Z,6.66
2019-02-24T09:00:50.980Z,6.72
2019-02-24T09:03:16.716Z,6.80
2019-02-24T09:05:46.304Z,6.86
2019-02-24T09:08:15.636Z,6.89
2019-02-24T09:10:45.210Z,6.98
2019-02-24T09:13:14.538Z,7.02
2019-02-24T09:15:44.136Z,7.10
2019-02-24T09:18:13.469Z,7.17
2019-02-24T09:20:42.804Z,7.24
2019-02-24T09:23:12.129Z,7.29
2019-02-24T09:25:41.468Z,7.36
2019-02-24T09:28:10.796Z,7.46
2019-02-24T09:30:41.721Z,7.48
2019-02-24T09:33:11.078Z,7.58
2019-02-24T09:35:40.427Z,7.68
2019-02-24T09:38:09.804Z,7.70
2019-02-24T09:40:39.134Z,7.78
2019-02-24T09:43:08.470Z,7.88
2019-02-24T09:45:37.809Z,7.93
2019-02-24T09:48:07.133Z,7.98
2019-02-24T09:50:36.462Z,8.05
2019-02-24T09:53:06.059Z,8.17
2019-02-24T09:55:35.391Z,8.26
2019-02-24T09:58:04.975Z,8.37
2019-02-24T10:00:34.299Z,8.46
2019-02-24T10:03:03.617Z,8.48
2019-02-24T10:05:32.947Z,8.57
2019-02-24T10:08:02.637Z,8.65
2019-02-24T10:10:31.955Z,8.70
2019-02-24T10:13:01.280Z,8.76
2019-02-24T10:15:30.952Z,8.82
2019-02-24T10:18:00.284Z,8.92
2019-02-24T10:20:29.611Z,9.01
2019-02-24T10:22:58.956Z,9.10
2019-02-24T10:25:28.568Z,9.21
2019-02-24T10:27:58.163Z,9.31
2019-02-24T10:30:27.485Z,9.33
2019-02-24T10:32:56.815Z,9.43
2019-02-24T10:35:26.151Z,9.53
2019-02-24T10:37:55.724Z,9.65
2019-02-24T10:40:25.049Z,9.72
2019-02-24T10:42:54.452Z,9.78
2019-02-24T10:45:23.774Z,9.94
2019-02-24T10:47:53.118Z,10.07
2019-02-24T10:50:22.439Z,10.22
2019-02-24T10:52:52.025Z,10.34
2019-02-24T10:55:21.343Z,10.52
2019-02-24T10:57:51.145Z,10.67
2019-02-24T11:00:22.727Z,10.87
2019-02-24T11:02:52.130Z,11.10
2019-02-24T11:05:21.454Z,11.41
2019-02-24T11:07:50.865Z,11.65
2019-02-24T11:10:20.196Z,11.96
2019-02-24T11:12:49.761Z,12.16
2019-02-24T11:15:19.381Z,12.50
2019-02-24T11:17:48.723Z,12.98
2019-02-24T11:20:18.690Z,13.51
2019-02-24T11:22:48.282Z,14.02
2019-02-24T11:25:17.610Z,14.71
2019-02-24T11:27:46.962Z,15.39
2019-02-24T11:30:16.390Z,16.04
2019-02-24T11:32:45.689Z,16.62
2019-02-24T11:35:15.255Z,17.08
2019-02-24T11:37:44.581Z,17.65
2019-02-24T11:40:15.907Z,18.28
2019-02-24T11:42:45.541Z,18.84
2019-02-24T11:45:15.118Z,19.32
2019-02-24T11:47:44.676Z,19.93
2019-02-24T11:50:14.279Z,20.36
2019-02-24T11:52:43.853Z,20.54
2019-02-24T11:55:13.356Z,20.90
2019-02-24T11:57:42.682Z,20.98
2019-02-24T12:00:14.451Z,21.45
2019-02-24T12:02:43.862Z,21.84
2019-02-24T12:05:13.331Z,22.37
2019-02-24T12:07:42.910Z,22.91
2019-02-24T12:10:12.976Z,23.39
2019-02-24T12:12:42.354Z,23.78
2019-02-24T12:15:12.834Z,24.09
2019-02-24T12:17:43.234Z,24.43
2019-02-24T12:20:14.578Z,24.74
2019-02-24T12:22:43.919Z,24.76
2019-02-24T12:25:15.039Z,24.91
2019-02-24T12:27:44.354Z,25.11
2019-02-24T12:30:17.427Z,25.21
2019-02-24T12:32:46.987Z,25.40
2019-02-24T12:35:16.396Z,25.34
2019-02-24T12:37:46.038Z,25.56
2019-02-24T12:40:16.171Z,25.77
2019-02-24T12:42:45.749Z,25.94
2019-02-24T12:45:15.085Z,26.20
2019-02-24T12:47:44.639Z,26.52
2019-02-24T12:50:15.614Z,26.84
2019-02-24T12:52:44.953Z,27.13
2019-02-24T12:55:14.356Z,27.41
2019-02-24T12:57:44.055Z,27.74
2019-02-24T13:00:19.057Z,28.01
2019-02-24T13:02:48.454Z,28.23
2019-02-24T13:05:17.788Z,28.52
2019-02-24T13:07:47.109Z,28.72
2019-02-24T13:10:18.465Z,28.89
2019-02-24T13:12:47.788Z,29.11
2019-02-24T13:15:17.121Z,29.26
2019-02-24T13:17:46.451Z,29.38
2019-02-24T13:20:16.028Z,29.47
2019-02-24T13:22:45.356Z,29.57
2019-02-24T13:25:15.053Z,29.75
2019-02-24T13:27:44.378Z,29.73
2019-02-24T13:30:15.795Z,30.06
2019-02-24T13:32:45.369Z,30.21
2019-02-24T13:35:14.697Z,30.07
2019-02-24T13:37:45.099Z,29.79
2019-02-24T13:40:15.668Z,30.23
2019-02-24T13:42:45.042Z,30.43
2019-02-24T13:45:19.629Z,30.58
2019-02-24T13:47:48.957Z,30.87
2019-02-24T13:50:18.287Z,31.00
2019-02-24T13:52:47.616Z,31.22
2019-02-24T13:55:16.938Z,31.24
2019-02-24T13:57:46.496Z,31.46
2019-02-24T14:00:18.301Z,31.38
2019-02-24T14:02:47.642Z,31.66
2019-02-24T14:05:16.970Z,31.86
2019-02-24T14:07:46.295Z,31.86
2019-02-24T14:10:18.132Z,31.98
2019-02-24T14:12:47.465Z,31.89
2019-02-24T14:15:16.956Z,31.76
2019-02-24T14:17:46.532Z,31.41
2019-02-24T14:20:17.195Z,31.41
2019-02-24T14:22:46.516Z,31.17
2019-02-24T14:25:16.783Z,30.85
2019-02-24T14:27:46.116Z,30.09
2019-02-24T14:30:17.512Z,30.09
2019-02-24T14:32:46.852Z,29.65
2019-02-24T14:35:18.651Z,29.26
2019-02-24T14:37:47.981Z,28.87
2019-02-24T14:40:17.380Z,28.48
2019-02-24T14:42:46.785Z,28.11
2019-02-24T14:45:17.857Z,27.62
2019-02-24T14:47:47.187Z,27.29
2019-02-24T14:50:16.507Z,26.88
2019-02-24T14:52:46.074Z,26.54
2019-02-24T14:55:16.246Z,26.24
2019-02-24T14:57:45.804Z,25.90
2019-02-24T15:00:20.263Z,25.55
2019-02-24T15:02:49.891Z,25.16
2019-02-24T15:05:19.217Z,24.89
2019-02-24T15:07:48.558Z,24.47
2019-02-24T15:10:22.010Z,24.15
2019-02-24T15:12:51.564Z,23.78
2019-02-24T15:15:26.426Z,23.57
2019-02-24T15:17:56.654Z,23.43
2019-02-24T15:20:25.554Z,23.17
2019-02-24T15:22:54.886Z,22.99
2019-02-24T15:25:24.441Z,22.74
2019-02-24T15:27:54.019Z,22.49
2019-02-24T15:30:28.940Z,22.26
2019-02-24T15:32:58.271Z,22.09
2019-02-24T15:35:27.898Z,21.86
2019-02-24T15:37:57.396Z,21.64
2019-02-24T15:40:26.810Z,21.41
2019-02-24T15:42:56.444Z,21.29
2019-02-24T15:45:25.774Z,21.20
2019-02-24T15:47:55.126Z,21.13
2019-02-24T15:50:24.461Z,21.17
2019-02-24T15:52:53.818Z,21.21
2019-02-24T15:55:23.127Z,21.21
2019-02-24T15:57:52.702Z,21.20
2019-02-24T16:00:24.007Z,21.22
2019-02-24T16:03:01.181Z,21.23
2019-02-24T16:05:24.657Z,21.18
2019-02-24T16:07:54.261Z,21.22
2019-02-24T16:10:23.767Z,21.22
2019-02-24T16:12:53.659Z,21.21
2019-02-24T16:15:27.485Z,21.22
2019-02-24T16:17:56.887Z,21.13
2019-02-24T16:20:28.555Z,20.95
2019-02-24T16:22:57.951Z,20.71
2019-02-24T16:25:27.537Z,20.28
2019-02-24T16:27:56.936Z,20.00
2019-02-24T16:30:26.283Z,19.74
2019-02-24T16:32:55.687Z,19.49
2019-02-24T16:35:25.035Z,19.17
2019-02-24T16:37:54.424Z,18.84
2019-02-24T16:40:29.005Z,18.56
2019-02-24T16:42:58.414Z,18.33
2019-02-24T16:45:27.751Z,18.06
2019-02-24T16:47:57.151Z,17.82
2019-02-24T16:50:26.555Z,17.53
2019-02-24T16:52:55.887Z,17.19
2019-02-24T16:55:25.230Z,16.92
2019-02-24T16:57:54.561Z,16.77
2019-02-24T17:00:29.186Z,16.51
2019-02-24T17:02:58.567Z,16.27
2019-02-24T17:05:28.130Z,15.98
2019-02-24T17:07:57.672Z,15.72
2019-02-24T17:10:28.347Z,15.42
2019-02-24T17:12:57.838Z,15.17
2019-02-24T17:15:27.421Z,14.96
2019-02-24T17:17:56.970Z,14.75
2019-02-24T17:20:30.450Z,14.52
2019-02-24T17:23:00.024Z,14.32
2019-02-24T17:25:29.358Z,14.18
2019-02-24T17:27:58.679Z,13.98
2019-02-24T17:30:28.979Z,13.78
2019-02-24T17:32:58.311Z,13.65
2019-02-24T17:35:27.649Z,13.53
2019-02-24T17:37:56.983Z,13.38
2019-02-24T17:40:26.317Z,13.23
2019-02-24T17:42:55.646Z,13.11
2019-02-24T17:45:24.978Z,12.96
2019-02-24T17:47:54.314Z,12.78
2019-02-24T17:50:23.651Z,12.62
2019-02-24T17:52:53.011Z,12.49
2019-02-24T17:55:22.810Z,12.33
2019-02-24T17:57:52.444Z,12.15
2019-02-24T18:00:43.127Z,11.98
2019-02-24T18:03:12.670Z,11.85
2019-02-24T18:05:42.063Z,11.71
2019-02-24T18:08:11.401Z,11.59
2019-02-24T18:10:40.743Z,11.48
2019-02-24T18:13:10.075Z,11.36
2019-02-24T18:15:39.727Z,11.25
2019-02-24T18:18:09.058Z,11.14
2019-02-24T18:20:39.371Z,11.03
2019-02-24T18:23:10.005Z,10.93
2019-02-24T18:25:40.314Z,10.83
2019-02-24T18:28:09.642Z,10.74
2019-02-24T18:30:39.288Z,10.70
2019-02-24T18:33:08.621Z,10.68
2019-02-24T18:35:37.957Z,10.64
2019-02-24T18:38:07.538Z,10.60
2019-02-24T18:40:36.879Z,10.53
2019-02-24T18:43:06.215Z,10.50
2019-02-24T18:45:35.781Z,10.47
2019-02-24T18:48:05.116Z,10.44
2019-02-24T18:50:34.689Z,10.42
2019-02-24T18:53:04.033Z,10.38
2019-02-24T18:55:33.433Z,10.33
2019-02-24T18:58:02.765Z,10.28
2019-02-24T19:00:32.667Z,10.23
2019-02-24T19:03:02.155Z,10.15
2019-02-24T19:05:31.491Z,10.10
2019-02-24T19:08:00.827Z,10.10
2019-02-24T19:10:30.159Z,10.18
2019-02-24T19:12:59.494Z,10.14
2019-02-24T19:15:29.795Z,10.10
2019-02-24T19:17:59.136Z,10.04
2019-02-24T19:20:28.506Z,9.95
2019-02-24T19:22:57.857Z,9.87
2019-02-24T19:25:27.188Z,9.78
2019-02-24T19:27:56.514Z,9.72
2019-02-24T19:30:25.836Z,9.65
2019-02-24T19:32:55.238Z,9.55
2019-02-24T19:35:24.566Z,9.44
2019-02-24T19:37:53.900Z,9.33
2019-02-24T19:40:23.295Z,9.26
2019-02-24T19:42:52.676Z,9.18
2019-02-24T19:45:26.653Z,9.14
2019-02-24T19:47:56.234Z,9.03
2019-02-24T19:50:25.659Z,8.97
2019-02-24T19:52:55.233Z,8.91
2019-02-24T19:55:24.805Z,8.81
2019-02-24T19:57:54.144Z,8.76
2019-02-24T20:00:24.706Z,8.71
2019-02-24T20:02:54.114Z,8.65
2019-02-24T20:05:23.512Z,8.61
2019-02-24T20:07:54.746Z,8.55
2019-02-24T20:10:27.798Z,8.48
2019-02-24T20:12:57.208Z,8.42
2019-02-24T20:15:26.958Z,8.38
2019-02-24T20:17:56.288Z,8.36
2019-02-24T20:20:25.974Z,8.31
2019-02-24T20:22:55.302Z,8.27
2019-02-24T20:25:24.751Z,8.26
2019-02-24T20:27:54.036Z,8.23
2019-02-24T20:30:30.818Z,8.21
2019-02-24T20:33:00.144Z,8.18
2019-02-24T20:35:29.479Z,8.16
2019-02-24T20:37:59.161Z,8.11
2019-02-24T20:40:28.593Z,8.05
2019-02-24T20:42:57.927Z,7.99
2019-02-24T20:45:29.198Z,7.95
2019-02-24T20:47:58.615Z,7.90
2019-02-24T20:50:30.433Z,7.86
2019-02-24T20:52:59.804Z,7.77
2019-02-24T20:55:29.138Z,7.72
2019-02-24T20:57:58.504Z,7.65
2019-02-24T21:00:33.436Z,7.61
2019-02-24T21:03:02.994Z,7.55
2019-02-24T21:05:32.334Z,7.49
2019-02-24T21:08:01.670Z,7.45
2019-02-24T21:10:31.073Z,7.39
2019-02-24T21:13:00.742Z,7.34
2019-02-24T21:15:30.306Z,7.30
2019-02-24T21:17:59.638Z,7.27
2019-02-24T21:20:33.564Z,7.22
2019-02-24T21:23:02.983Z,7.13
2019-02-24T21:25:32.323Z,7.09
2019-02-24T21:28:01.726Z,7.02
2019-02-24T21:30:31.841Z,6.99
2019-02-24T21:33:01.268Z,6.92
2019-02-24T21:35:31.584Z,6.89
2019-02-24T21:38:00.941Z,6.88
2019-02-24T21:40:31.384Z,6.86
2019-02-24T21:43:00.779Z,6.81
2019-02-24T21:45:30.986Z,6.78
2019-02-24T21:48:00.319Z,6.76
2019-02-24T21:50:29.719Z,6.73
2019-02-24T21:52:59.303Z,6.68
2019-02-24T21:55:28.662Z,6.65
2019-02-24T21:57:57.990Z,6.62
2019-02-24T22:00:27.636Z,6.62
2019-02-24T22:02:57.214Z,6.56
2019-02-24T22:05:26.596Z,6.49
2019-02-24T22:07:55.979Z,6.44
2019-02-24T22:10:25.270Z,6.40
2019-02-24T22:12:54.598Z,6.37
2019-02-24T22:15:25.805Z,6.33
2019-02-24T22:17:55.138Z,6.26
2019-02-24T22:20:24.472Z,6.23
2019-02-24T22:22:53.823Z,6.18
2019-02-24T22:25:23.164Z,6.14
2019-02-24T22:27:52.509Z,6.09
2019-02-24T22:30:22.897Z,6.09
2019-02-24T22:32:52.241Z,6.12
2019-02-24T22:35:21.574Z,6.09
2019-02-24T22:37:50.919Z,6.08
2019-02-24T22:40:20.342Z,6.02
2019-02-24T22:42:49.928Z,5.96
2019-02-24T22:45:20.272Z,5.89
2019-02-24T22:47:49.784Z,5.87
2019-02-24T22:50:19.117Z,5.85
2019-02-24T22:52:48.494Z,5.87
2019-02-24T22:55:19.009Z,5.86
2019-02-24T22:57:48.341Z,5.80
2019-02-24T23:00:52.345Z,5.71
2019-02-24T23:03:32.029Z,5.68
2019-02-24T23:06:01.606Z,5.62
2019-02-24T23:08:30.942Z,5.58
2019-02-24T23:11:00.276Z,5.58
2019-02-24T23:13:29.619Z,5.52
2019-02-24T23:15:58.991Z,5.45
2019-02-24T23:18:28.341Z,5.42
2019-02-24T23:20:57.701Z,5.35
2019-02-24T23:23:27.038Z,5.33
2019-02-24T23:25:56.367Z,5.32
2019-02-24T23:28:26.094Z,5.26
2019-02-24T23:30:55.501Z,5.23
2019-02-24T23:33:24.835Z,5.18
2019-02-24T23:35:54.166Z,5.15
2019-02-24T23:38:23.500Z,5.12
2019-02-24T23:40:53.117Z,5.08
2019-02-24T23:43:22.456Z,5.04
2019-02-24T23:45:51.800Z,4.97
2019-02-24T23:48:21.121Z,4.94
2019-02-24T23:50:50.469Z,4.90
2019-02-24T23:53:19.799Z,4.87
2019-02-24T23:55:49.374Z,4.81
2019-02-24T23:58:18.714Z,4.75
